createdAt,value
2023-01-08T00:00:25.098Z,82.73
2023-01-08T00:02:54.779Z,82.60
2023-01-08T00:05:23.166Z,82.57
2023-01-08T00:07:51.315Z,82.64
2023-01-08T00:10:19.353Z,82.66
2023-01-08T00:12:47.376Z,82.67
2023-01-08T00:15:15.513Z,82.49
2023-01-08T00:17:43.486Z,82.44
2023-01-08T00:20:16.243Z,82.85
2023-01-08T00:22:44.242Z,82.83
2023-01-08T00:25:12.217Z,83.20
2023-01-08T00:27:40.503Z,83.23
2023-01-08T00:30:09.563Z,83.35
2023-01-08T00:32:37.621Z,83.33
2023-01-08T00:35:06.546Z,83.31
2023-01-08T00:37:35.909Z,83.51
2023-01-08T00:40:04.435Z,83.51
2023-01-08T00:42:32.457Z,83.69
2023-01-08T00:45:00.463Z,83.74
2023-01-08T00:47:28.530Z,83.75
2023-01-08T00:49:56.513Z,83.97
2023-01-08T00:52:24.772Z,83.93
2023-01-08T00:54:54.094Z,83.97
2023-01-08T00:57:22.112Z,84.00
2023-01-08T00:59:50.121Z,84.14
2023-01-08T01:02:18.254Z,84.24
2023-01-08T01:04:46.286Z,84.40
2023-01-08T01:07:14.538Z,84.60
2023-01-08T01:09:42.801Z,84.74
2023-01-08T01:12:12.156Z,84.81
2023-01-08T01:14:40.526Z,84.87
2023-01-08T01:17:08.650Z,84.85
2023-01-08T01:19:37.112Z,85.10
2023-01-08T01:22:05.473Z,85.08
2023-01-08T01:24:33.757Z,85.16
2023-01-08T01:27:01.758Z,85.27
2023-01-08T01:29:31.289Z,85.31
2023-01-08T01:31:59.327Z,85.34
2023-01-08T01:34:27.407Z,85.34
2023-01-08T01:36:55.419Z,85.47
2023-01-08T01:39:23.568Z,85.48
2023-01-08T01:41:53.259Z,85.54
2023-01-08T01:44:46.684Z,85.75
2023-01-08T01:47:22.070Z,85.96
2023-01-08T01:49:53.906Z,85.72
2023-01-08T01:52:22.632Z,85.91
2023-01-08T01:54:51.006Z,86.02
2023-01-08T01:57:19.498Z,86.12
2023-01-08T01:59:49.436Z,86.28
2023-01-08T02:02:17.736Z,86.48
2023-01-08T02:04:45.917Z,86.54
2023-01-08T02:07:17.322Z,86.58
2023-01-08T02:09:50.466Z,86.80
2023-01-08T02:12:22.235Z,86.94
2023-01-08T02:15:00.904Z,87.17
2023-01-08T02:17:36.299Z,87.28
2023-01-08T02:20:10.587Z,87.26
2023-01-08T02:22:47.137Z,87.23
2023-01-08T02:25:23.349Z,87.10
2023-01-08T02:27:55.380Z,87.28
2023-01-08T02:30:23.377Z,87.39
2023-01-08T02:32:51.598Z,87.55
2023-01-08T02:35:19.808Z,87.72
2023-01-08T02:37:47.833Z,87.81
2023-01-08T02:40:26.636Z,87.79
2023-01-08T02:43:00.003Z,87.87
2023-01-08T02:45:35.500Z,87.88
2023-01-08T02:48:08.085Z,87.95
2023-01-08T02:50:39.040Z,87.86
2023-01-08T02:53:12.166Z,87.93
2023-01-08T02:55:41.934Z,87.92
2023-01-08T02:58:11.593Z,87.72
2023-01-08T03:00:40.623Z,87.62
2023-01-08T03:03:11.240Z,87.77
2023-01-08T03:05:41.705Z,87.71
2023-01-08T03:08:10.226Z,87.68
2023-01-08T03:10:40.048Z,87.59
2023-01-08T03:13:13.560Z,87.70
2023-01-08T03:15:46.040Z,87.72
2023-01-08T03:18:17.060Z,87.69
2023-01-08T03:20:45.977Z,87.75
2023-01-08T03:23:16.321Z,87.71
2023-01-08T03:25:47.508Z,87.62
2023-01-08T03:28:20.619Z,87.61
2023-01-08T03:30:49.664Z,87.75
2023-01-08T03:33:18.993Z,87.93
2023-01-08T03:35:49.219Z,87.92
2023-01-08T03:38:21.260Z,88.16
2023-01-08T03:40:53.687Z,88.43
2023-01-08T03:43:23.086Z,88.62
2023-01-08T03:45:52.979Z,88.51
2023-01-08T03:48:22.127Z,88.38
2023-01-08T03:50:50.155Z,88.33
2023-01-08T03:53:18.238Z,88.17
2023-01-08T03:55:46.213Z,88.33
2023-01-08T03:58:14.584Z,88.34
2023-01-08T04:00:44.219Z,88.24
2023-01-08T04:03:12.269Z,88.27
2023-01-08T04:05:40.280Z,88.22
2023-01-08T04:08:08.367Z,88.20
2023-01-08T04:10:36.381Z,88.06
2023-01-08T04:13:04.482Z,88.12
2023-01-08T04:15:32.948Z,88.00
2023-01-08T04:18:02.483Z,87.97
2023-01-08T04:20:30.519Z,87.89
2023-01-08T04:22:58.510Z,87.81
2023-01-08T04:25:26.639Z,87.71
2023-01-08T04:27:54.821Z,87.76
2023-01-08T04:30:22.885Z,87.55
2023-01-08T04:32:50.969Z,87.74
2023-01-08T04:35:20.292Z,87.87
2023-01-08T04:37:48.243Z,87.92
2023-01-08T04:40:16.608Z,88.02
2023-01-08T04:42:44.871Z,88.08
2023-01-08T04:45:13.012Z,88.10
2023-01-08T04:47:41.162Z,88.04
2023-01-08T04:50:10.235Z,87.88
2023-01-08T04:52:39.520Z,87.63
2023-01-08T04:55:08.226Z,87.46
2023-01-08T04:57:36.423Z,87.32
2023-01-08T05:00:05.611Z,87.14
2023-01-08T05:02:33.751Z,86.92
2023-01-08T05:05:01.831Z,86.74
2023-01-08T05:07:29.867Z,86.49
2023-01-08T05:09:59.442Z,86.20
2023-01-08T05:12:27.616Z,85.95
2023-01-08T05:14:55.910Z,85.86
2023-01-08T05:17:23.904Z,85.75
2023-01-08T05:19:52.130Z,85.60
2023-01-08T05:22:20.159Z,85.48
2023-01-08T05:24:48.143Z,85.41
2023-01-08T05:27:17.618Z,85.30
2023-01-08T05:29:45.792Z,85.27
2023-01-08T05:32:17.453Z,85.02
2023-01-08T05:34:46.164Z,85.02
2023-01-08T05:37:14.127Z,84.90
2023-01-08T05:39:42.212Z,84.83
2023-01-08T05:42:10.402Z,84.79
2023-01-08T05:44:39.953Z,84.73
2023-01-08T05:47:07.963Z,84.73
2023-01-08T05:49:35.951Z,84.72
2023-01-08T05:52:04.075Z,84.81
2023-01-08T05:54:32.092Z,84.87
2023-01-08T05:57:00.170Z,84.90
2023-01-08T05:59:28.242Z,84.81
2023-01-08T06:01:57.763Z,84.78
2023-01-08T06:04:26.285Z,84.72
2023-01-08T06:06:54.345Z,84.68
2023-01-08T06:09:22.295Z,84.67
2023-01-08T06:11:50.297Z,84.76
2023-01-08T06:14:18.747Z,84.64
2023-01-08T06:16:47.925Z,84.59
2023-01-08T06:19:19.163Z,84.75
2023-01-08T06:21:47.363Z,84.68
2023-01-08T06:24:15.354Z,84.61
2023-01-08T06:26:43.319Z,84.61
2023-01-08T06:29:11.319Z,84.51
2023-01-08T06:31:39.533Z,84.43
2023-01-08T06:34:07.863Z,84.36
2023-01-08T06:36:37.321Z,84.41
2023-01-08T06:39:06.724Z,84.29
2023-01-08T06:41:34.936Z,84.47
2023-01-08T06:44:02.952Z,84.53
2023-01-08T06:46:31.694Z,84.86
2023-01-08T06:48:59.922Z,85.11
2023-01-08T06:51:27.908Z,85.27
2023-01-08T06:53:57.299Z,85.63
2023-01-08T06:56:25.474Z,85.92
2023-01-08T06:58:53.457Z,86.17
2023-01-08T07:01:22.995Z,86.42
2023-01-08T07:03:51.682Z,86.69
2023-01-08T07:06:21.776Z,86.94
2023-01-08T07:08:50.251Z,87.25
2023-01-08T07:11:19.588Z,87.47
2023-01-08T07:13:47.612Z,87.82
2023-01-08T07:16:16.378Z,88.12
2023-01-08T07:18:44.859Z,88.37
2023-01-08T07:21:13.218Z,88.65
2023-01-08T07:23:41.962Z,88.75
2023-01-08T07:26:10.004Z,89.10
2023-01-08T07:28:39.361Z,89.36
2023-01-08T07:31:07.619Z,89.55
2023-01-08T07:33:35.714Z,89.80
2023-01-08T07:36:03.956Z,89.90
2023-01-08T07:38:32.097Z,90.22
2023-01-08T07:41:00.362Z,90.47
2023-01-08T07:43:30.182Z,90.70
2023-01-08T07:45:59.743Z,90.83
2023-01-08T07:48:27.705Z,91.12
2023-01-08T07:50:55.724Z,91.29
2023-01-08T07:53:23.811Z,91.41
2023-01-08T07:55:51.844Z,91.61
2023-01-08T07:58:19.874Z,91.77
2023-01-08T08:00:48.057Z,91.93
2023-01-08T08:03:17.641Z,92.08
2023-01-08T08:05:45.657Z,92.21
2023-01-08T08:08:14.484Z,92.34
2023-01-08T08:10:43.350Z,92.46
2023-01-08T08:13:12.691Z,92.54
2023-01-08T08:15:41.044Z,92.63
2023-01-08T08:18:09.280Z,92.62
2023-01-08T08:20:39.364Z,92.67
2023-01-08T08:23:08.928Z,92.69
2023-01-08T08:25:37.602Z,92.74
2023-01-08T08:28:05.999Z,92.79
2023-01-08T08:30:36.231Z,92.81
2023-01-08T08:33:06.532Z,92.92
2023-01-08T08:35:35.343Z,93.01
2023-01-08T08:38:04.796Z,93.02
2023-01-08T08:40:32.899Z,93.05
2023-01-08T08:43:02.622Z,93.09
2023-01-08T08:45:30.866Z,93.12
2023-01-08T08:47:59.029Z,93.11
2023-01-08T08:50:27.424Z,93.03
2023-01-08T08:53:00.203Z,93.01
2023-01-08T08:55:30.044Z,92.90
2023-01-08T08:58:04.835Z,92.84
2023-01-08T09:00:33.311Z,92.84
2023-01-08T09:03:01.509Z,92.82
2023-01-08T09:05:30.259Z,92.81
2023-01-08T09:07:58.278Z,92.82
2023-01-08T09:10:26.472Z,92.84
2023-01-08T09:12:56.051Z,92.78
2023-01-08T09:15:24.404Z,92.78
2023-01-08T09:17:55.811Z,92.76
2023-01-08T09:20:24.186Z,92.59
2023-01-08T09:22:52.388Z,92.55
2023-01-08T09:25:20.465Z,92.56
2023-01-08T09:27:48.882Z,92.65
2023-01-08T09:30:18.300Z,92.63
2023-01-08T09:32:46.356Z,92.63
2023-01-08T09:35:14.388Z,92.72
2023-01-08T09:37:42.612Z,92.77
2023-01-08T09:40:12.320Z,92.87
2023-01-08T09:42:40.379Z,92.93
2023-01-08T09:45:14.246Z,93.06
2023-01-08T09:47:45.072Z,93.11
2023-01-08T09:50:14.518Z,93.25
2023-01-08T09:52:43.809Z,93.36
2023-01-08T09:55:14.753Z,93.47
2023-01-08T09:57:43.293Z,93.64
2023-01-08T10:00:15.463Z,93.76
2023-01-08T10:02:45.381Z,93.93
2023-01-08T10:05:15.739Z,94.08
2023-01-08T10:07:45.413Z,94.20
2023-01-08T10:10:18.813Z,94.40
2023-01-08T10:12:47.243Z,94.51
2023-01-08T10:15:17.113Z,94.66
2023-01-08T10:17:51.150Z,94.70
2023-01-08T10:20:21.276Z,94.85
2023-01-08T10:22:49.994Z,95.01
2023-01-08T10:25:20.490Z,95.09
2023-01-08T10:27:50.601Z,95.21
2023-01-08T10:30:21.898Z,95.36
2023-01-08T10:32:54.531Z,95.43
2023-01-08T10:35:25.085Z,95.52
2023-01-08T10:37:53.237Z,95.54
2023-01-08T10:40:31.023Z,95.57
2023-01-08T10:43:06.955Z,95.54
2023-01-08T10:45:35.101Z,95.60
2023-01-08T10:48:07.048Z,95.58
2023-01-08T10:50:36.258Z,95.56
2023-01-08T10:53:06.801Z,95.53
2023-01-08T10:55:37.433Z,95.59
2023-01-08T10:58:15.115Z,95.71
2023-01-08T11:00:43.360Z,95.71
2023-01-08T11:03:22.189Z,95.74
2023-01-08T11:05:50.371Z,95.87
2023-01-08T11:08:22.909Z,96.92
2023-01-08T11:10:55.153Z,96.79
2023-01-08T11:13:23.503Z,96.48
2023-01-08T11:16:03.195Z,96.31
2023-01-08T11:18:35.914Z,96.02
2023-01-08T11:21:09.125Z,94.41
2023-01-08T11:23:37.433Z,94.06
2023-01-08T11:26:08.076Z,94.02
2023-01-08T11:28:45.265Z,93.99
2023-01-08T11:31:16.057Z,94.09
2023-01-08T11:33:46.124Z,94.01
2023-01-08T11:36:20.343Z,94.05
2023-01-08T11:38:49.026Z,94.14
2023-01-08T11:41:33.093Z,94.27
2023-01-08T11:44:19.419Z,94.35
2023-01-08T11:46:54.135Z,94.35
2023-01-08T11:49:52.174Z,94.33
2023-01-08T11:52:30.726Z,94.30
2023-01-08T11:55:25.745Z,94.28
2023-01-08T11:58:07.016Z,94.23
2023-01-08T12:00:46.378Z,94.18
2023-01-08T12:03:20.683Z,94.30
2023-01-08T12:05:57.638Z,94.27
2023-01-08T12:08:30.926Z,94.30
2023-01-08T12:11:04.783Z,94.29
2023-01-08T12:13:44.490Z,94.29
2023-01-08T12:16:28.997Z,94.19
2023-01-08T12:19:05.136Z,94.16
2023-01-08T12:21:35.691Z,94.13
2023-01-08T12:24:17.315Z,94.12
2023-01-08T12:26:50.922Z,94.11
2023-01-08T12:29:59.165Z,94.14
2023-01-08T12:32:31.059Z,94.01
2023-01-08T12:35:02.643Z,93.93
2023-01-08T12:37:36.061Z,93.81
2023-01-08T12:40:08.032Z,93.77
2023-01-08T12:42:46.738Z,93.84
2023-01-08T12:45:18.996Z,93.90
2023-01-08T12:47:49.843Z,93.90
2023-01-08T12:50:28.762Z,93.87
2023-01-08T12:53:01.661Z,93.87
2023-01-08T12:55:38.657Z,93.84
2023-01-08T12:58:23.030Z,93.87
2023-01-08T13:00:57.758Z,93.93
2023-01-08T13:03:28.662Z,94.00
2023-01-08T13:06:08.068Z,94.09
2023-01-08T13:08:39.227Z,94.17
2023-01-08T13:11:08.207Z,94.28
2023-01-08T13:13:38.140Z,94.38
2023-01-08T13:16:08.132Z,94.43
2023-01-08T13:18:36.273Z,94.48
2023-01-08T13:21:05.600Z,94.57
2023-01-08T13:23:36.192Z,94.65
2023-01-08T13:26:07.103Z,94.66
2023-01-08T13:28:43.873Z,94.72
2023-01-08T13:31:28.013Z,94.78
2023-01-08T13:33:56.908Z,94.85
2023-01-08T13:36:26.750Z,94.88
2023-01-08T13:39:07.783Z,94.88
2023-01-08T13:41:40.118Z,94.92
2023-01-08T13:44:13.996Z,95.01
2023-01-08T13:46:42.378Z,94.95
2023-01-08T13:49:16.341Z,95.01
2023-01-08T13:51:45.819Z,94.89
2023-01-08T13:54:21.062Z,94.94
2023-01-08T13:56:55.097Z,94.92
2023-01-08T13:59:39.648Z,94.92
2023-01-08T14:02:23.952Z,94.94
2023-01-08T14:04:52.715Z,94.92
2023-01-08T14:07:21.302Z,94.92
2023-01-08T14:09:49.303Z,94.92
2023-01-08T14:12:21.648Z,94.91
2023-01-08T14:14:51.327Z,94.94
2023-01-08T14:17:21.941Z,94.94
2023-01-08T14:19:50.225Z,94.94
2023-01-08T14:22:20.934Z,94.97
2023-01-08T14:24:55.007Z,94.92
2023-01-08T14:27:26.714Z,94.94
2023-01-08T14:29:56.844Z,94.90
2023-01-08T14:32:26.410Z,94.87
2023-01-08T14:34:55.189Z,94.88
2023-01-08T14:37:23.527Z,94.83
2023-01-08T14:39:54.750Z,94.79
2023-01-08T14:42:46.890Z,94.76
2023-01-08T14:45:20.187Z,94.75
2023-01-08T14:47:50.195Z,94.74
2023-01-08T14:50:21.107Z,94.78
2023-01-08T14:52:49.522Z,94.73
2023-01-08T14:55:20.028Z,94.73
2023-01-08T14:57:53.254Z,94.70
2023-01-08T15:00:24.155Z,94.65
2023-01-08T15:02:53.182Z,94.68
2023-01-08T15:05:23.476Z,94.57
2023-01-08T15:08:01.281Z,94.54
2023-01-08T15:10:41.416Z,94.50
2023-01-08T15:13:23.355Z,94.48
2023-01-08T15:15:56.772Z,94.48
2023-01-08T15:18:24.944Z,94.46
2023-01-08T15:20:53.284Z,94.50
2023-01-08T15:23:26.973Z,94.50
2023-01-08T15:25:56.618Z,94.54
2023-01-08T15:28:26.787Z,94.49
2023-01-08T15:30:55.206Z,94.51
2023-01-08T15:33:24.822Z,94.54
2023-01-08T15:35:53.315Z,94.53
2023-01-08T15:38:23.677Z,95.04
2023-01-08T15:40:53.156Z,95.85
2023-01-08T15:43:21.628Z,94.86
2023-01-08T15:45:52.630Z,94.49
2023-01-08T15:48:20.759Z,94.32
2023-01-08T15:50:48.876Z,94.29
2023-01-08T15:53:19.130Z,94.27
2023-01-08T15:55:47.985Z,94.21
2023-01-08T15:58:16.712Z,94.20
2023-01-08T16:00:46.745Z,94.20
2023-01-08T16:03:17.302Z,94.17
2023-01-08T16:05:45.566Z,94.18
2023-01-08T16:08:14.091Z,94.13
2023-01-08T16:10:42.150Z,94.13
2023-01-08T16:13:12.021Z,94.08
2023-01-08T16:15:40.709Z,94.11
2023-01-08T16:18:08.781Z,94.07
2023-01-08T16:20:38.859Z,94.01
2023-01-08T16:23:07.043Z,94.00
2023-01-08T16:25:35.299Z,93.98
2023-01-08T16:28:03.942Z,94.00
2023-01-08T16:30:32.294Z,93.96
2023-01-08T16:33:00.335Z,93.94
2023-01-08T16:35:28.298Z,93.98
2023-01-08T16:37:57.673Z,93.99
2023-01-08T16:40:25.724Z,93.97
2023-01-08T16:42:53.785Z,93.99
2023-01-08T16:45:21.856Z,93.96
2023-01-08T16:47:50.075Z,93.95
2023-01-08T16:50:18.246Z,93.85
2023-01-08T16:52:46.587Z,93.71
2023-01-08T16:55:16.220Z,93.58
2023-01-08T16:57:46.903Z,93.46
2023-01-08T17:00:15.647Z,93.41
2023-01-08T17:02:44.135Z,93.39
2023-01-08T17:05:12.448Z,93.39
2023-01-08T17:07:40.522Z,93.53
2023-01-08T17:10:10.229Z,93.49
2023-01-08T17:12:39.690Z,93.49
2023-01-08T17:15:08.864Z,94.79
2023-01-08T17:17:36.898Z,94.02
2023-01-08T17:20:05.758Z,93.67
2023-01-08T17:22:33.787Z,93.65
2023-01-08T17:25:02.171Z,93.64
2023-01-08T17:27:30.227Z,93.64
2023-01-08T17:30:02.041Z,93.71
2023-01-08T17:32:30.458Z,93.78
2023-01-08T17:34:58.516Z,93.84
2023-01-08T17:37:26.648Z,93.84
2023-01-08T17:39:54.774Z,93.89
2023-01-08T17:42:26.657Z,93.92
2023-01-08T17:44:57.025Z,94.01
2023-01-08T17:47:26.902Z,94.04
2023-01-08T17:49:56.786Z,94.06
2023-01-08T17:52:26.099Z,94.08
2023-01-08T17:54:54.511Z,94.09
2023-01-08T17:57:22.543Z,94.14
2023-01-08T17:59:50.821Z,94.12
2023-01-08T18:02:19.102Z,94.12
2023-01-08T18:04:48.974Z,93.99
2023-01-08T18:07:18.305Z,93.92
2023-01-08T18:09:46.351Z,93.91
2023-01-08T18:12:14.308Z,93.91
2023-01-08T18:14:44.046Z,93.85
2023-01-08T18:17:12.123Z,93.71
2023-01-08T18:19:43.283Z,93.70
2023-01-08T18:22:13.096Z,93.57
2023-01-08T18:24:41.145Z,93.63
2023-01-08T18:27:09.990Z,93.54
2023-01-08T18:29:40.689Z,93.48
2023-01-08T18:32:08.773Z,93.37
2023-01-08T18:34:38.779Z,93.27
2023-01-08T18:37:06.881Z,93.19
2023-01-08T18:39:36.262Z,93.14
2023-01-08T18:42:22.369Z,93.02
2023-01-08T18:44:52.596Z,93.00
2023-01-08T18:47:20.958Z,92.86
2023-01-08T18:49:49.107Z,92.75
2023-01-08T18:52:17.251Z,92.67
2023-01-08T18:54:46.707Z,92.61
2023-01-08T18:57:14.930Z,92.60
2023-01-08T18:59:43.057Z,92.55
2023-01-08T19:02:18.596Z,92.50
2023-01-08T19:04:47.409Z,92.46
2023-01-08T19:07:15.480Z,92.48
2023-01-08T19:09:43.821Z,92.48
2023-01-08T19:12:13.385Z,92.50
2023-01-08T19:14:41.630Z,92.53
2023-01-08T19:17:09.708Z,92.56
2023-01-08T19:19:37.967Z,92.62
2023-01-08T19:22:06.056Z,92.72
2023-01-08T19:24:36.920Z,92.86
2023-01-08T19:27:05.460Z,92.81
2023-01-08T19:29:35.182Z,92.72
2023-01-08T19:32:03.793Z,92.51
2023-01-08T19:34:32.314Z,92.38
2023-01-08T19:37:01.162Z,92.35
2023-01-08T19:39:29.882Z,92.68
2023-01-08T19:42:16.150Z,92.26
2023-01-08T19:44:45.518Z,92.14
2023-01-08T19:47:13.707Z,92.16
2023-01-08T19:49:43.195Z,92.17
2023-01-08T19:52:11.303Z,92.15
2023-01-08T19:54:39.381Z,92.22
2023-01-08T19:57:07.661Z,92.26
2023-01-08T19:59:35.949Z,92.24
2023-01-08T20:02:08.805Z,92.26
2023-01-08T20:04:38.938Z,92.33
2023-01-08T20:07:09.905Z,92.37
2023-01-08T20:09:38.619Z,92.40
2023-01-08T20:12:11.919Z,92.43
2023-01-08T20:14:39.987Z,92.48
2023-01-08T20:17:10.045Z,92.57
2023-01-08T20:19:38.129Z,92.58
2023-01-08T20:22:06.164Z,92.64
2023-01-08T20:24:34.427Z,92.57
2023-01-08T20:27:02.728Z,92.51
2023-01-08T20:29:32.612Z,92.44
2023-01-08T20:32:01.293Z,92.38
2023-01-08T20:34:30.891Z,92.38
2023-01-08T20:36:59.188Z,92.29
2023-01-08T20:39:27.434Z,92.13
2023-01-08T20:42:03.920Z,92.10
2023-01-08T20:44:32.947Z,92.03
2023-01-08T20:47:01.149Z,92.02
2023-01-08T20:49:30.762Z,91.97
2023-01-08T20:52:00.336Z,91.90
2023-01-08T20:54:29.378Z,91.89
2023-01-08T20:56:58.036Z,91.86
2023-01-08T20:59:26.269Z,91.85
2023-01-08T21:01:54.696Z,91.80
2023-01-08T21:04:23.259Z,91.81
2023-01-08T21:06:53.047Z,91.84
2023-01-08T21:09:21.166Z,91.79
2023-01-08T21:11:49.212Z,91.74
2023-01-08T21:14:17.341Z,91.72
2023-01-08T21:16:45.520Z,91.68
2023-01-08T21:19:15.590Z,91.68
2023-01-08T21:21:43.738Z,91.68
2023-01-08T21:24:15.637Z,91.66
2023-01-08T21:26:45.928Z,91.72
2023-01-08T21:29:14.789Z,91.72
2023-01-08T21:31:43.300Z,91.67
2023-01-08T21:34:11.752Z,91.69
2023-01-08T21:36:40.004Z,91.71
2023-01-08T21:39:08.278Z,91.68
2023-01-08T21:41:55.285Z,91.70
2023-01-08T21:44:42.357Z,91.69
2023-01-08T21:47:12.151Z,91.74
2023-01-08T21:49:40.427Z,91.76
2023-01-08T21:52:37.838Z,91.72
2023-01-08T21:55:06.595Z,91.71
2023-01-08T21:57:40.614Z,91.70
2023-01-08T22:00:10.763Z,91.74
2023-01-08T22:02:38.818Z,91.72
2023-01-08T22:05:07.602Z,91.66
2023-01-08T22:07:35.768Z,91.63
2023-01-08T22:10:04.473Z,91.67
2023-01-08T22:12:32.471Z,91.63
2023-01-08T22:15:01.829Z,91.70
2023-01-08T22:17:31.266Z,91.75
2023-01-08T22:20:01.177Z,91.86
2023-01-08T22:22:29.409Z,91.92
2023-01-08T22:24:57.511Z,92.00
2023-01-08T22:27:25.690Z,92.04
2023-01-08T22:29:54.554Z,92.11
2023-01-08T22:32:23.935Z,92.22
2023-01-08T22:34:51.928Z,92.35
2023-01-08T22:37:21.703Z,92.45
2023-01-08T22:39:50.209Z,92.56
2023-01-08T22:42:18.150Z,92.60
2023-01-08T22:44:46.169Z,92.55
2023-01-08T22:47:14.156Z,92.56
2023-01-08T22:49:43.445Z,92.61
2023-01-08T22:52:11.598Z,92.71
2023-01-08T22:54:39.840Z,92.69
2023-01-08T22:57:08.260Z,92.69
2023-01-08T22:59:36.773Z,92.81
2023-01-08T23:02:04.893Z,92.78
2023-01-08T23:04:32.935Z,92.88
2023-01-08T23:07:02.293Z,92.97
2023-01-08T23:09:30.315Z,92.91
2023-01-08T23:11:58.286Z,92.85
2023-01-08T23:14:26.601Z,92.96
2023-01-08T23:16:54.609Z,92.97
2023-01-08T23:19:22.660Z,92.89
2023-01-08T23:21:50.656Z,92.91
2023-01-08T23:24:20.039Z,92.89
2023-01-08T23:26:48.008Z,92.92
2023-01-08T23:29:16.057Z,92.83
2023-01-08T23:31:44.337Z,92.86
2023-01-08T23:34:12.817Z,92.87
2023-01-08T23:36:42.916Z,92.77
2023-01-08T23:39:11.145Z,92.66
2023-01-08T23:41:40.619Z,92.52
2023-01-08T23:44:12.093Z,92.47
2023-01-08T23:46:40.606Z,92.36
2023-01-08T23:49:08.672Z,92.39
2023-01-08T23:51:37.045Z,92.49
2023-01-08T23:54:05.195Z,92.47
2023-01-08T23:56:33.264Z,92.40
2023-01-08T23:59:02.797Z,92.53
